sensor_id;sensor_type;location;lat;lon;timestamp;P1;durP1;ratioP1;P2;durP2;ratioP2
9248;SDS011;4660;41.768;26.198;2023-04-01T00:01:29;5.17;;;2.83;;
9248;SDS011;4660;41.768;26.198;2023-04-01T00:03:55;5.43;;;2.83;;
9248;SDS011;4660;41.768;26.198;2023-04-01T00:06:21;5.93;;;2.80;;
9248;SDS011;4660;41.768;26.198;2023-04-01T00:08:47;4.77;;;2.67;;
9248;SDS011;4660;41.768;26.198;2023-04-01T00:11:12;3.70;;;2.63;;
9248;SDS011;4660;41.768;26.198;2023-04-01T00:13:40;6.87;;;2.93;;
9248;SDS011;4660;41.768;26.198;2023-04-01T00:16:06;5.63;;;3.40;;
9248;SDS011;4660;41.768;26.198;2023-04-01T00:18:32;8.37;;;5.00;;
9248;SDS011;4660;41.768;26.198;2023-04-01T00:20:58;6.70;;;3.07;;
9248;SDS011;4660;41.768;26.198;2023-04-01T00:23:23;3.30;;;2.93;;
9248;SDS011;4660;41.768;26.198;2023-04-01T00:25:49;3.80;;;3.00;;
9248;SDS011;4660;41.768;26.198;2023-04-01T00:28:16;4.60;;;3.67;;
9248;SDS011;4660;41.768;26.198;2023-04-01T00:30:42;5.37;;;3.50;;
9248;SDS011;4660;41.768;26.198;2023-04-01T00:33:08;11.97;;;4.70;;
9248;SDS011;4660;41.768;26.198;2023-04-01T00:35:33;4.30;;;2.67;;
9248;SDS011;4660;41.768;26.198;2023-04-01T00:37:59;5.60;;;3.00;;
9248;SDS011;4660;41.768;26.198;2023-04-01T00:40:32;5.87;;;3.07;;
9248;SDS011;4660;41.768;26.198;2023-04-01T00:43:01;5.53;;;3.80;;
9248;SDS011;4660;41.768;26.198;2023-04-01T00:45:32;6.73;;;3.70;;
9248;SDS011;4660;41.768;26.198;2023-04-01T00:48:14;15.07;;;10.17;;
9248;SDS011;4660;41.768;26.198;2023-04-01T00:50:45;3.83;;;3.30;;
9248;SDS011;4660;41.768;26.198;2023-04-01T00:53:16;7.90;;;5.97;;
9248;SDS011;4660;41.768;26.198;2023-04-01T00:55:46;10.23;;;7.27;;
9248;SDS011;4660;41.768;26.198;2023-04-01T00:58:17;15.37;;;7.13;;
9248;SDS011;4660;41.768;26.198;2023-04-01T01:00:46;12.73;;;7.63;;
9248;SDS011;4660;41.768;26.198;2023-04-01T01:03:14;7.73;;;3.90;;
9248;SDS011;4660;41.768;26.198;2023-04-01T01:11:20;5.13;;;2.57;;
9248;SDS011;4660;41.768;26.198;2023-04-01T01:14:31;6.10;;;4.10;;
9248;SDS011;4660;41.768;26.198;2023-04-01T01:17:14;4.73;;;2.60;;
9248;SDS011;4660;41.768;26.198;2023-04-01T01:19:50;10.10;;;5.03;;
9248;SDS011;4660;41.768;26.198;2023-04-01T01:25:25;4.77;;;3.03;;
9248;SDS011;4660;41.768;26.198;2023-04-01T01:33:43;4.60;;;2.90;;
9248;SDS011;4660;41.768;26.198;2023-04-01T01:36:32;6.77;;;2.83;;
9248;SDS011;4660;41.768;26.198;2023-04-01T01:39:03;2.80;;;2.30;;
9248;SDS011;4660;41.768;26.198;2023-04-01T01:41:31;7.13;;;3.83;;
9248;SDS011;4660;41.768;26.198;2023-04-01T01:43:58;4.73;;;3.17;;
9248;SDS011;4660;41.768;26.198;2023-04-01T01:46:27;5.60;;;3.47;;
9248;SDS011;4660;41.768;26.198;2023-04-01T01:48:55;8.33;;;4.60;;
9248;SDS011;4660;41.768;26.198;2023-04-01T01:51:22;5.80;;;3.27;;
9248;SDS011;4660;41.768;26.198;2023-04-01T01:53:49;6.53;;;2.97;;
9248;SDS011;4660;41.768;26.198;2023-04-01T01:56:15;3.23;;;2.50;;
9248;SDS011;4660;41.768;26.198;2023-04-01T01:58:54;4.90;;;2.87;;
9248;SDS011;4660;41.768;26.198;2023-04-01T02:01:24;3.93;;;2.80;;
9248;SDS011;4660;41.768;26.198;2023-04-01T02:03:52;6.10;;;2.90;;
9248;SDS011;4660;41.768;26.198;2023-04-01T02:06:26;6.57;;;2.83;;
9248;SDS011;4660;41.768;26.198;2023-04-01T02:09:02;6.03;;;2.97;;
9248;SDS011;4660;41.768;26.198;2023-04-01T02:11:38;4.93;;;2.60;;
9248;SDS011;4660;41.768;26.198;2023-04-01T02:17:02;5.87;;;2.87;;
9248;SDS011;4660;41.768;26.198;2023-04-01T02:19:36;3.13;;;2.53;;
9248;SDS011;4660;41.768;26.198;2023-04-01T02:22:05;4.50;;;2.80;;
9248;SDS011;4660;41.768;26.198;2023-04-01T02:24:36;7.17;;;2.97;;
9248;SDS011;4660;41.768;26.198;2023-04-01T02:27:05;7.60;;;3.57;;
9248;SDS011;4660;41.768;26.198;2023-04-01T02:29:30;4.93;;;3.60;;
9248;SDS011;4660;41.768;26.198;2023-04-01T02:31:56;8.37;;;3.00;;
9248;SDS011;4660;41.768;26.198;2023-04-01T02:34:23;3.33;;;2.20;;
9248;SDS011;4660;41.768;26.198;2023-04-01T02:36:50;4.67;;;3.10;;
9248;SDS011;4660;41.768;26.198;2023-04-01T02:39:16;7.17;;;2.80;;
9248;SDS011;4660;41.768;26.198;2023-04-01T02:41:43;6.03;;;2.97;;
9248;SDS011;4660;41.768;26.198;2023-04-01T02:44:10;5.23;;;2.77;;
9248;SDS011;4660;41.768;26.198;2023-04-01T02:46:38;7.20;;;3.27;;
9248;SDS011;4660;41.768;26.198;2023-04-01T02:49:04;7.20;;;3.47;;
9248;SDS011;4660;41.768;26.198;2023-04-01T02:51:30;11.30;;;3.77;;
9248;SDS011;4660;41.768;26.198;2023-04-01T02:53:55;5.37;;;3.10;;
9248;SDS011;4660;41.768;26.198;2023-04-01T02:56:21;7.23;;;2.80;;
9248;SDS011;4660;41.768;26.198;2023-04-01T02:58:46;5.07;;;2.87;;
9248;SDS011;4660;41.768;26.198;2023-04-01T03:01:13;4.97;;;3.00;;
9248;SDS011;4660;41.768;26.198;2023-04-01T03:03:39;4.57;;;3.50;;
9248;SDS011;4660;41.768;26.198;2023-04-01T03:06:06;6.33;;;2.80;;
9248;SDS011;4660;41.768;26.198;2023-04-01T03:08:36;5.97;;;2.90;;
9248;SDS011;4660;41.768;26.198;2023-04-01T03:11:01;4.13;;;2.77;;
9248;SDS011;4660;41.768;26.198;2023-04-01T03:13:27;5.10;;;2.60;;
9248;SDS011;4660;41.768;26.198;2023-04-01T03:15:53;7.17;;;2.80;;
9248;SDS011;4660;41.768;26.198;2023-04-01T03:18:18;7.60;;;2.83;;
9248;SDS011;4660;41.768;26.198;2023-04-01T03:20:44;4.70;;;3.27;;
9248;SDS011;4660;41.768;26.198;2023-04-01T03:23:10;12.03;;;4.93;;
9248;SDS011;4660;41.768;26.198;2023-04-01T03:25:35;8.90;;;4.90;;
9248;SDS011;4660;41.768;26.198;2023-04-01T03:28:01;9.07;;;4.47;;
9248;SDS011;4660;41.768;26.198;2023-04-01T03:30:27;6.83;;;4.27;;
9248;SDS011;4660;41.768;26.198;2023-04-01T03:32:54;9.43;;;4.87;;
9248;SDS011;4660;41.768;26.198;2023-04-01T03:35:20;7.20;;;4.10;;
9248;SDS011;4660;41.768;26.198;2023-04-01T03:37:46;10.03;;;4.87;;
9248;SDS011;4660;41.768;26.198;2023-04-01T03:40:11;8.00;;;5.10;;
9248;SDS011;4660;41.768;26.198;2023-04-01T03:42:37;10.47;;;5.87;;
9248;SDS011;4660;41.768;26.198;2023-04-01T03:45:03;9.67;;;5.60;;
9248;SDS011;4660;41.768;26.198;2023-04-01T03:47:30;9.87;;;5.50;;
9248;SDS011;4660;41.768;26.198;2023-04-01T03:49:56;12.67;;;6.67;;
9248;SDS011;4660;41.768;26.198;2023-04-01T03:52:21;13.53;;;6.50;;
9248;SDS011;4660;41.768;26.198;2023-04-01T03:54:47;19.50;;;10.43;;
9248;SDS011;4660;41.768;26.198;2023-04-01T03:57:12;20.13;;;14.23;;
9248;SDS011;4660;41.768;26.198;2023-04-01T03:59:38;11.33;;;8.50;;
9248;SDS011;4660;41.768;26.198;2023-04-01T04:02:03;12.40;;;8.17;;
9248;SDS011;4660;41.768;26.198;2023-04-01T04:04:29;10.33;;;8.37;;
9248;SDS011;4660;41.768;26.198;2023-04-01T04:06:55;19.67;;;8.10;;
9248;SDS011;4660;41.768;26.198;2023-04-01T04:09:22;10.53;;;6.27;;
9248;SDS011;4660;41.768;26.198;2023-04-01T04:11:48;7.37;;;4.77;;
9248;SDS011;4660;41.768;26.198;2023-04-01T04:14:13;10.67;;;4.70;;
9248;SDS011;4660;41.768;26.198;2023-04-01T04:16:39;9.73;;;5.70;;
9248;SDS011;4660;41.768;26.198;2023-04-01T04:19:04;6.47;;;4.50;;
9248;SDS011;4660;41.768;26.198;2023-04-01T04:21:30;12.80;;;4.47;;
9248;SDS011;4660;41.768;26.198;2023-04-01T04:23:56;8.40;;;3.93;;
9248;SDS011;4660;41.768;26.198;2023-04-01T04:26:23;7.30;;;4.53;;
9248;SDS011;4660;41.768;26.198;2023-04-01T04:28:48;8.00;;;3.50;;
9248;SDS011;4660;41.768;26.198;2023-04-01T04:31:18;11.97;;;4.57;;
9248;SDS011;4660;41.768;26.198;2023-04-01T04:33:45;16.27;;;4.87;;
9248;SDS011;4660;41.768;26.198;2023-04-01T04:36:11;7.70;;;4.30;;
9248;SDS011;4660;41.768;26.198;2023-04-01T04:38:36;14.50;;;4.90;;
9248;SDS011;4660;41.768;26.198;2023-04-01T04:41:02;6.30;;;4.33;;
9248;SDS011;4660;41.768;26.198;2023-04-01T04:43:27;10.47;;;4.90;;
9248;SDS011;4660;41.768;26.198;2023-04-01T04:45:53;8.90;;;4.40;;
9248;SDS011;4660;41.768;26.198;2023-04-01T04:48:19;14.50;;;4.70;;
9248;SDS011;4660;41.768;26.198;2023-04-01T04:50:46;9.47;;;5.33;;
9248;SDS011;4660;41.768;26.198;2023-04-01T04:53:13;8.07;;;4.80;;
9248;SDS011;4660;41.768;26.198;2023-04-01T04:55:44;11.47;;;5.03;;
9248;SDS011;4660;41.768;26.198;2023-04-01T04:58:11;14.93;;;5.97;;
9248;SDS011;4660;41.768;26.198;2023-04-01T05:00:36;12.73;;;4.80;;
9248;SDS011;4660;41.768;26.198;2023-04-01T05:03:02;12.67;;;5.60;;
9248;SDS011;4660;41.768;26.198;2023-04-01T05:05:27;9.70;;;4.80;;
9248;SDS011;4660;41.768;26.198;2023-04-01T05:07:53;15.07;;;4.63;;
9248;SDS011;4660;41.768;26.198;2023-04-01T05:10:18;11.70;;;4.57;;
9248;SDS011;4660;41.768;26.198;2023-04-01T05:12:45;10.13;;;4.90;;
9248;SDS011;4660;41.768;26.198;2023-04-01T05:15:11;7.50;;;3.60;;
9248;SDS011;4660;41.768;26.198;2023-04-01T05:17:36;11.63;;;4.93;;
9248;SDS011;4660;41.768;26.198;2023-04-01T05:20:02;14.30;;;5.03;;
9248;SDS011;4660;41.768;26.198;2023-04-01T05:22:28;11.67;;;4.83;;
9248;SDS011;4660;41.768;26.198;2023-04-01T05:24:54;11.73;;;4.97;;
9248;SDS011;4660;41.768;26.198;2023-04-01T05:27:20;13.23;;;5.30;;
9248;SDS011;4660;41.768;26.198;2023-04-01T05:29:46;12.83;;;5.20;;
9248;SDS011;4660;41.768;26.198;2023-04-01T05:32:11;11.23;;;4.67;;
9248;SDS011;4660;41.768;26.198;2023-04-01T05:34:37;12.27;;;5.53;;
9248;SDS011;4660;41.768;26.198;2023-04-01T05:37:02;10.83;;;5.87;;
9248;SDS011;4660;41.768;26.198;2023-04-01T05:39:28;15.97;;;6.93;;
9248;SDS011;4660;41.768;26.198;2023-04-01T05:41:53;13.37;;;6.07;;
9248;SDS011;4660;41.768;26.198;2023-04-01T05:44:19;11.77;;;6.50;;
9248;SDS011;4660;41.768;26.198;2023-04-01T05:46:45;13.43;;;6.23;;
9248;SDS011;4660;41.768;26.198;2023-04-01T05:49:10;9.80;;;5.90;;
9248;SDS011;4660;41.768;26.198;2023-04-01T05:51:36;15.00;;;6.07;;
9248;SDS011;4660;41.768;26.198;2023-04-01T05:54:03;15.83;;;8.13;;
9248;SDS011;4660;41.768;26.198;2023-04-01T05:56:30;18.17;;;7.53;;
9248;SDS011;4660;41.768;26.198;2023-04-01T05:58:55;18.37;;;6.33;;
9248;SDS011;4660;41.768;26.198;2023-04-01T06:01:21;13.63;;;6.93;;
9248;SDS011;4660;41.768;26.198;2023-04-01T06:03:47;13.33;;;6.70;;
9248;SDS011;4660;41.768;26.198;2023-04-01T06:06:16;10.90;;;6.03;;
9248;SDS011;4660;41.768;26.198;2023-04-01T06:08:48;14.90;;;6.13;;
9248;SDS011;4660;41.768;26.198;2023-04-01T06:11:17;15.10;;;6.37;;
9248;SDS011;4660;41.768;26.198;2023-04-01T06:25:14;13.43;;;5.47;;
9248;SDS011;4660;41.768;26.198;2023-04-01T06:42:11;9.68;;;3.72;;
9248;SDS011;4660;41.768;26.198;2023-04-01T06:47:45;12.83;;;4.03;;
9248;SDS011;4660;41.768;26.198;2023-04-01T06:55:59;11.10;;;4.13;;
9248;SDS011;4660;41.768;26.198;2023-04-01T07:01:37;13.03;;;4.53;;
9248;SDS011;4660;41.768;26.198;2023-04-01T07:04:27;15.57;;;5.05;;
9248;SDS011;4660;41.768;26.198;2023-04-01T07:06:55;9.90;;;3.67;;
9248;SDS011;4660;41.768;26.198;2023-04-01T07:09:34;11.15;;;3.85;;
9248;SDS011;4660;41.768;26.198;2023-04-01T07:12:06;11.82;;;5.00;;
9248;SDS011;4660;41.768;26.198;2023-04-01T07:14:41;12.00;;;4.90;;
9248;SDS011;4660;41.768;26.198;2023-04-01T07:17:11;13.65;;;4.28;;
9248;SDS011;4660;41.768;26.198;2023-04-01T07:22:40;10.73;;;3.40;;
9248;SDS011;4660;41.768;26.198;2023-04-01T07:25:17;11.45;;;5.65;;
9248;SDS011;4660;41.768;26.198;2023-04-01T07:27:45;10.07;;;4.78;;
9248;SDS011;4660;41.768;26.198;2023-04-01T07:30:16;11.63;;;4.50;;
9248;SDS011;4660;41.768;26.198;2023-04-01T07:32:47;10.77;;;4.20;;
9248;SDS011;4660;41.768;26.198;2023-04-01T07:38:47;14.15;;;4.40;;
9248;SDS011;4660;41.768;26.198;2023-04-01T07:44:29;7.78;;;3.72;;
9248;SDS011;4660;41.768;26.198;2023-04-01T07:50:24;8.07;;;3.20;;
9248;SDS011;4660;41.768;26.198;2023-04-01T07:58:47;10.90;;;3.38;;
9248;SDS011;4660;41.768;26.198;2023-04-01T08:01:20;10.73;;;3.33;;
9248;SDS011;4660;41.768;26.198;2023-04-01T08:15:18;7.90;;;3.00;;
9248;SDS011;4660;41.768;26.198;2023-04-01T08:20:46;13.00;;;5.25;;
9248;SDS011;4660;41.768;26.198;2023-04-01T08:25:54;15.65;;;4.07;;
9248;SDS011;4660;41.768;26.198;2023-04-01T08:28:40;11.90;;;4.07;;
9248;SDS011;4660;41.768;26.198;2023-04-01T08:31:18;16.60;;;4.03;;
9248;SDS011;4660;41.768;26.198;2023-04-01T08:33:58;16.48;;;3.85;;
9248;SDS011;4660;41.768;26.198;2023-04-01T08:36:40;13.25;;;3.58;;
9248;SDS011;4660;41.768;26.198;2023-04-01T08:39:22;17.75;;;4.47;;
9248;SDS011;4660;41.768;26.198;2023-04-01T08:52:37;9.85;;;2.92;;
9248;SDS011;4660;41.768;26.198;2023-04-01T08:55:30;13.65;;;4.03;;
9248;SDS011;4660;41.768;26.198;2023-04-01T09:03:52;14.25;;;3.42;;
9248;SDS011;4660;41.768;26.198;2023-04-01T09:12:31;12.10;;;3.25;;
9248;SDS011;4660;41.768;26.198;2023-04-01T09:21:24;13.80;;;3.30;;
9248;SDS011;4660;41.768;26.198;2023-04-01T09:38:21;12.35;;;3.88;;
9248;SDS011;4660;41.768;26.198;2023-04-01T09:40:57;13.90;;;3.90;;
9248;SDS011;4660;41.768;26.198;2023-04-01T09:46:46;15.30;;;3.90;;
9248;SDS011;4660;41.768;26.198;2023-04-01T10:21:12;18.05;;;4.32;;
9248;SDS011;4660;41.768;26.198;2023-04-01T10:23:34;14.48;;;4.60;;
9248;SDS011;4660;41.768;26.198;2023-04-01T10:41:28;17.95;;;3.97;;
9248;SDS011;4660;41.768;26.198;2023-04-01T10:50:06;14.65;;;3.85;;
9248;SDS011;4660;41.768;26.198;2023-04-01T11:09:49;16.15;;;5.53;;
9248;SDS011;4660;41.768;26.198;2023-04-01T11:15:37;15.18;;;4.75;;
9248;SDS011;4660;41.768;26.198;2023-04-01T11:40:36;12.32;;;3.55;;
9248;SDS011;4660;41.768;26.198;2023-04-01T11:46:02;11.45;;;4.20;;
9248;SDS011;4660;41.768;26.198;2023-04-01T11:48:37;14.45;;;3.65;;
9248;SDS011;4660;41.768;26.198;2023-04-01T11:51:16;16.48;;;4.30;;
9248;SDS011;4660;41.768;26.198;2023-04-01T11:54:12;18.38;;;3.83;;
9248;SDS011;4660;41.768;26.198;2023-04-01T11:59:44;12.10;;;4.07;;
9248;SDS011;4660;41.768;26.198;2023-04-01T12:09:07;10.88;;;2.97;;
9248;SDS011;4660;41.768;26.198;2023-04-01T12:11:48;14.82;;;2.75;;
9248;SDS011;4660;41.768;26.198;2023-04-01T12:14:43;14.50;;;3.70;;
9248;SDS011;4660;41.768;26.198;2023-04-01T12:17:29;14.90;;;3.33;;
9248;SDS011;4660;41.768;26.198;2023-04-01T12:22:50;16.80;;;3.72;;
9248;SDS011;4660;41.768;26.198;2023-04-01T12:39:51;5.63;;;2.72;;
9248;SDS011;4660;41.768;26.198;2023-04-01T12:53:51;14.05;;;3.40;;
9248;SDS011;4660;41.768;26.198;2023-04-01T13:13:39;16.65;;;3.65;;
9248;SDS011;4660;41.768;26.198;2023-04-01T13:22:14;11.70;;;3.13;;
9248;SDS011;4660;41.768;26.198;2023-04-01T13:27:38;17.02;;;3.53;;
9248;SDS011;4660;41.768;26.198;2023-04-01T13:32:56;13.30;;;3.15;;
9248;SDS011;4660;41.768;26.198;2023-04-01T13:44:17;11.75;;;3.33;;
9248;SDS011;4660;41.768;26.198;2023-04-01T13:58:01;13.23;;;3.88;;
9248;SDS011;4660;41.768;26.198;2023-04-01T14:06:27;15.48;;;3.65;;
9248;SDS011;4660;41.768;26.198;2023-04-01T14:20:34;11.55;;;3.20;;
9248;SDS011;4660;41.768;26.198;2023-04-01T14:34:20;16.75;;;3.90;;
9248;SDS011;4660;41.768;26.198;2023-04-01T14:37:55;11.35;;;3.47;;
9248;SDS011;4660;41.768;26.198;2023-04-01T14:40:27;14.73;;;4.05;;
9248;SDS011;4660;41.768;26.198;2023-04-01T14:51:09;13.30;;;3.90;;
9248;SDS011;4660;41.768;26.198;2023-04-01T14:53:43;19.27;;;7.47;;
9248;SDS011;4660;41.768;26.198;2023-04-01T14:56:34;12.27;;;5.03;;
9248;SDS011;4660;41.768;26.198;2023-04-01T14:59:01;14.05;;;4.68;;
9248;SDS011;4660;41.768;26.198;2023-04-01T15:01:36;12.13;;;4.55;;
9248;SDS011;4660;41.768;26.198;2023-04-01T15:06:54;14.90;;;4.22;;
9248;SDS011;4660;41.768;26.198;2023-04-01T15:33:29;15.07;;;3.78;;
9248;SDS011;4660;41.768;26.198;2023-04-01T15:35:59;15.75;;;3.78;;
9248;SDS011;4660;41.768;26.198;2023-04-01T15:50:26;15.93;;;6.18;;
9248;SDS011;4660;41.768;26.198;2023-04-01T15:52:58;14.52;;;5.28;;
9248;SDS011;4660;41.768;26.198;2023-04-01T15:55:27;16.35;;;6.97;;
9248;SDS011;4660;41.768;26.198;2023-04-01T15:58:16;19.63;;;5.40;;
9248;SDS011;4660;41.768;26.198;2023-04-01T16:00:57;11.85;;;4.28;;
9248;SDS011;4660;41.768;26.198;2023-04-01T16:19:51;13.43;;;5.13;;
9248;SDS011;4660;41.768;26.198;2023-04-01T16:22:40;9.73;;;5.10;;
9248;SDS011;4660;41.768;26.198;2023-04-01T16:28:03;10.43;;;6.72;;
9248;SDS011;4660;41.768;26.198;2023-04-01T16:39:09;12.67;;;5.70;;
9248;SDS011;4660;41.768;26.198;2023-04-01T16:41:38;7.78;;;5.00;;
9248;SDS011;4660;41.768;26.198;2023-04-01T16:46:44;9.27;;;4.65;;
9248;SDS011;4660;41.768;26.198;2023-04-01T16:49:25;7.53;;;4.47;;
9248;SDS011;4660;41.768;26.198;2023-04-01T16:59:35;12.27;;;8.77;;
9248;SDS011;4660;41.768;26.198;2023-04-01T17:02:04;6.15;;;4.53;;
9248;SDS011;4660;41.768;26.198;2023-04-01T17:10:17;15.15;;;7.60;;
9248;SDS011;4660;41.768;26.198;2023-04-01T17:18:14;37.88;;;25.60;;
9248;SDS011;4660;41.768;26.198;2023-04-01T17:31:05;7.00;;;4.97;;
9248;SDS011;4660;41.768;26.198;2023-04-01T17:41:51;21.55;;;13.00;;
9248;SDS011;4660;41.768;26.198;2023-04-01T17:44:27;15.07;;;7.97;;
9248;SDS011;4660;41.768;26.198;2023-04-01T17:49:54;13.00;;;7.60;;
9248;SDS011;4660;41.768;26.198;2023-04-01T17:54:56;12.37;;;7.07;;
9248;SDS011;4660;41.768;26.198;2023-04-01T18:01:00;14.80;;;7.07;;
9248;SDS011;4660;41.768;26.198;2023-04-01T18:09:50;10.20;;;5.80;;
9248;SDS011;4660;41.768;26.198;2023-04-01T18:14:43;6.70;;;4.60;;
9248;SDS011;4660;41.768;26.198;2023-04-01T18:20:02;6.73;;;4.40;;
9248;SDS011;4660;41.768;26.198;2023-04-01T18:30:32;6.83;;;4.77;;
9248;SDS011;4660;41.768;26.198;2023-04-01T18:33:02;13.67;;;6.47;;
9248;SDS011;4660;41.768;26.198;2023-04-01T18:38:31;7.00;;;4.80;;
9248;SDS011;4660;41.768;26.198;2023-04-01T18:49:21;12.50;;;6.67;;
9248;SDS011;4660;41.768;26.198;2023-04-01T18:51:57;12.10;;;7.70;;
9248;SDS011;4660;41.768;26.198;2023-04-01T18:54:32;9.30;;;6.77;;
9248;SDS011;4660;41.768;26.198;2023-04-01T18:57:23;16.30;;;8.97;;
9248;SDS011;4660;41.768;26.198;2023-04-01T18:59:55;15.37;;;9.50;;
9248;SDS011;4660;41.768;26.198;2023-04-01T19:02:44;11.77;;;5.90;;
9248;SDS011;4660;41.768;26.198;2023-04-01T19:05:32;7.33;;;4.10;;
9248;SDS011;4660;41.768;26.198;2023-04-01T19:10:51;4.20;;;3.60;;
9248;SDS011;4660;41.768;26.198;2023-04-01T19:13:47;5.90;;;3.13;;
9248;SDS011;4660;41.768;26.198;2023-04-01T19:19:03;6.93;;;4.13;;
9248;SDS011;4660;41.768;26.198;2023-04-01T19:21:56;5.37;;;4.40;;
9248;SDS011;4660;41.768;26.198;2023-04-01T19:27:28;10.10;;;7.88;;
9248;SDS011;4660;41.768;26.198;2023-04-01T19:32:37;12.50;;;8.47;;
9248;SDS011;4660;41.768;26.198;2023-04-01T19:53:18;14.97;;;10.47;;
9248;SDS011;4660;41.768;26.198;2023-04-01T19:58:57;14.40;;;10.43;;
9248;SDS011;4660;41.768;26.198;2023-04-01T20:04:22;22.90;;;11.57;;
9248;SDS011;4660;41.768;26.198;2023-04-01T20:07:07;18.47;;;12.03;;
9248;SDS011;4660;41.768;26.198;2023-04-01T20:09:39;10.57;;;7.67;;
9248;SDS011;4660;41.768;26.198;2023-04-01T20:12:41;11.30;;;7.20;;
9248;SDS011;4660;41.768;26.198;2023-04-01T20:17:47;9.40;;;6.70;;
9248;SDS011;4660;41.768;26.198;2023-04-01T20:20:18;8.33;;;6.50;;
9248;SDS011;4660;41.768;26.198;2023-04-01T20:22:54;13.97;;;9.43;;
9248;SDS011;4660;41.768;26.198;2023-04-01T20:25:46;13.73;;;9.87;;
9248;SDS011;4660;41.768;26.198;2023-04-01T20:43:49;13.33;;;9.23;;
9248;SDS011;4660;41.768;26.198;2023-04-01T20:49:33;18.03;;;12.00;;
9248;SDS011;4660;41.768;26.198;2023-04-01T20:52:35;14.73;;;9.40;;
9248;SDS011;4660;41.768;26.198;2023-04-01T21:00:53;15.23;;;10.77;;
9248;SDS011;4660;41.768;26.198;2023-04-01T21:09:15;15.90;;;11.10;;
9248;SDS011;4660;41.768;26.198;2023-04-01T21:14:55;14.27;;;11.10;;
9248;SDS011;4660;41.768;26.198;2023-04-01T21:34:59;11.33;;;6.90;;
9248;SDS011;4660;41.768;26.198;2023-04-01T21:37:49;12.63;;;8.27;;
9248;SDS011;4660;41.768;26.198;2023-04-01T22:05:15;7.57;;;4.17;;
9248;SDS011;4660;41.768;26.198;2023-04-01T22:13:50;5.30;;;3.23;;
9248;SDS011;4660;41.768;26.198;2023-04-01T22:16:27;4.10;;;2.60;;
9248;SDS011;4660;41.768;26.198;2023-04-01T22:19:06;2.87;;;2.27;;
9248;SDS011;4660;41.768;26.198;2023-04-01T22:21:41;2.97;;;2.10;;
9248;SDS011;4660;41.768;26.198;2023-04-01T22:27:17;3.80;;;2.00;;
9248;SDS011;4660;41.768;26.198;2023-04-01T22:38:35;3.47;;;1.90;;
9248;SDS011;4660;41.768;26.198;2023-04-01T22:43:40;2.30;;;2.00;;
9248;SDS011;4660;41.768;26.198;2023-04-01T22:46:31;2.43;;;2.07;;
9248;SDS011;4660;41.768;26.198;2023-04-01T22:49:17;2.20;;;2.00;;
9248;SDS011;4660;41.768;26.198;2023-04-01T22:51:50;3.73;;;2.27;;
9248;SDS011;4660;41.768;26.198;2023-04-01T22:54:37;6.00;;;1.70;;
9248;SDS011;4660;41.768;26.198;2023-04-01T23:02:25;1.53;;;1.43;;
9248;SDS011;4660;41.768;26.198;2023-04-01T23:04:55;1.83;;;1.73;;
9248;SDS011;4660;41.768;26.198;2023-04-01T23:10:15;1.70;;;1.60;;
9248;SDS011;4660;41.768;26.198;2023-04-01T23:12:56;2.13;;;1.90;;
9248;SDS011;4660;41.768;26.198;2023-04-01T23:15:23;2.40;;;1.80;;
9248;SDS011;4660;41.768;26.198;2023-04-01T23:28:40;1.80;;;1.40;;
9248;SDS011;4660;41.768;26.198;2023-04-01T23:31:24;1.50;;;1.40;;
9248;SDS011;4660;41.768;26.198;2023-04-01T23:33:54;1.60;;;1.50;;
9248;SDS011;4660;41.768;26.198;2023-04-01T23:36:22;1.50;;;1.23;;
9248;SDS011;4660;41.768;26.198;2023-04-01T23:38:48;3.53;;;1.50;;
9248;SDS011;4660;41.768;26.198;2023-04-01T23:46:25;1.70;;;1.60;;
9248;SDS011;4660;41.768;26.198;2023-04-01T23:48:51;4.23;;;1.63;;
9248;SDS011;4660;41.768;26.198;2023-04-01T23:51:20;1.40;;;1.40;;
9248;SDS011;4660;41.768;26.198;2023-04-01T23:53:58;1.50;;;1.40;;
9248;SDS011;4660;41.768;26.198;2023-04-01T23:56:37;2.27;;;2.17;;
9248;SDS011;4660;41.768;26.198;2023-04-01T23:59:17;2.37;;;2.23;;
